Time;durP1;ratioP1;P1;durP2;ratioP2;P2;SDS_P1;SDS_P2;PMS_P1;PMS_P2;Temp;Humidity;BMP_temperature;BMP_pressure;BME280_temperature;BME280_humidity;BME280_pressure;Samples;Min_cycle;Max_cycle;Signal;HPM_P1;HPM_P2
2024/03/25 00:00:32;;;;;;;7.68;3.53;;;;;7.60;97733.00;;;;7394989;19;20479;-67
2024/03/25 00:02:58;;;;;;;5.40;3.08;;;;;7.50;97739.00;;;;7398104;19;20035;-67
2024/03/25 00:05:25;;;;;;;6.47;3.05;;;;;7.50;97745.00;;;;7393816;19;20018;-68
2024/03/25 00:07:52;;;;;;;6.70;3.20;;;;;7.50;97747.00;;;;7392285;19;20021;-68
2024/03/25 00:10:20;;;;;;;5.70;3.05;;;;;7.50;97742.00;;;;7393481;19;20372;-68
2024/03/25 00:12:47;;;;;;;7.35;3.47;;;;;7.40;97749.00;;;;7394056;19;20356;-67
2024/03/25 00:15:13;;;;;;;7.95;3.50;;;;;7.40;97756.00;;;;7392269;19;20018;-68
2024/03/25 00:17:38;;;;;;;7.95;3.47;;;;;7.40;97760.00;;;;7392136;19;20007;-68
2024/03/25 00:20:09;;;;;;;5.53;3.35;;;;;7.40;97757.00;;;;7393444;19;20074;-67
2024/03/25 00:22:34;;;;;;;9.65;3.85;;;;;7.40;97766.00;;;;7392749;19;20019;-67
2024/03/25 00:25:00;;;;;;;7.53;3.33;;;;;7.40;97770.00;;;;7392534;19;20039;-67
2024/03/25 00:27:26;;;;;;;8.27;3.55;;;;;7.40;97752.00;;;;7391591;19;20034;-67
2024/03/25 00:29:51;;;;;;;6.10;3.40;;;;;7.40;97760.00;;;;7393388;19;20006;-67
2024/03/25 00:32:17;;;;;;;4.78;2.63;;;;;7.40;97771.00;;;;7398879;19;20085;-67
2024/03/25 00:34:43;;;;;;;6.55;3.05;;;;;7.40;97766.00;;;;7394958;19;20022;-67
2024/03/25 00:37:08;;;;;;;8.95;3.63;;;;;7.40;97759.00;;;;7391441;19;20039;-67
2024/03/25 00:39:34;;;;;;;6.20;3.33;;;;;7.40;97753.00;;;;7392707;19;20019;-67
2024/03/25 00:42:00;;;;;;;6.70;3.33;;;;;7.40;97758.00;;;;7391797;19;20011;-67
2024/03/25 00:44:26;;;;;;;6.25;3.50;;;;;7.40;97752.00;;;;7392368;19;20010;-68
2024/03/25 00:46:52;;;;;;;9.75;3.28;;;;;7.30;97750.00;;;;7391127;19;20014;-68
2024/03/25 00:49:17;;;;;;;6.25;3.38;;;;;7.30;97750.00;;;;7392592;19;20397;-67
2024/03/25 00:51:43;;;;;;;7.90;3.40;;;;;7.30;97748.00;;;;7391997;19;20349;-67
2024/03/25 00:54:09;;;;;;;7.47;3.47;;;;;7.30;97747.00;;;;7392079;19;20017;-67
2024/03/25 00:56:34;;;;;;;6.63;3.35;;;;;7.30;97746.00;;;;7391631;19;20058;-67
2024/03/25 00:59:03;;;;;;;8.32;3.35;;;;;7.30;97753.00;;;;7392470;19;20525;-68
2024/03/25 01:01:29;;;;;;;7.43;3.00;;;;;7.30;97743.00;;;;7394843;19;20031;-68
2024/03/25 01:03:55;;;;;;;6.80;4.00;;;;;7.30;97755.00;;;;7396195;19;20013;-68
2024/03/25 01:06:21;;;;;;;7.18;3.40;;;;;7.40;97753.00;;;;7391247;19;20015;-67
2024/03/25 01:08:47;;;;;;;8.18;3.70;;;;;7.40;97748.00;;;;7391995;19;20027;-68
2024/03/25 01:11:13;;;;;;;12.55;4.38;;;;;7.40;97758.00;;;;7391818;19;20467;-67
2024/03/25 01:13:38;;;;;;;7.00;3.25;;;;;7.40;97754.00;;;;7393168;19;20038;-68
2024/03/25 01:16:04;;;;;;;10.02;3.58;;;;;7.40;97759.00;;;;7391870;19;20483;-68
2024/03/25 01:18:30;;;;;;;7.50;3.17;;;;;7.40;97753.00;;;;7393859;19;20013;-67
2024/03/25 01:20:57;;;;;;;6.57;3.58;;;;;7.50;97756.00;;;;7394323;19;20015;-68
2024/03/25 01:23:22;;;;;;;7.60;3.40;;;;;7.50;97769.00;;;;7395300;19;20010;-66
2024/03/25 01:25:48;;;;;;;7.97;3.25;;;;;7.40;97753.00;;;;7398130;19;20006;-67
2024/03/25 01:28:14;;;;;;;5.75;3.40;;;;;7.40;97762.00;;;;7397746;19;20006;-66
2024/03/25 01:30:39;;;;;;;9.00;3.40;;;;;7.40;97759.00;;;;7395086;19;20034;-66
2024/03/25 01:33:05;;;;;;;10.57;3.70;;;;;7.40;97758.00;;;;7396929;19;20010;-67
2024/03/25 01:35:31;;;;;;;7.95;3.65;;;;;7.40;97762.00;;;;7389376;19;20014;-67
2024/03/25 01:37:57;;;;;;;9.40;3.70;;;;;7.20;97753.00;;;;7390304;19;20361;-67
2024/03/25 01:40:24;;;;;;;5.50;3.28;;;;;7.00;97749.00;;;;7391322;19;20074;-67
2024/03/25 01:42:57;;;;;;;7.38;3.17;;;;;6.90;97749.00;;;;7392274;19;20071;-67
2024/03/25 01:45:24;;;;;;;7.05;3.53;;;;;6.80;97741.00;;;;7392463;19;20099;-68
2024/03/25 01:47:50;;;;;;;14.25;4.18;;;;;6.80;97745.00;;;;7389878;19;20022;-68
2024/03/25 01:50:16;;;;;;;4.93;3.15;;;;;6.80;97737.00;;;;7390279;19;20042;-69
2024/03/25 01:52:42;;;;;;;7.13;3.50;;;;;6.80;97741.00;;;;7390787;19;20011;-67
2024/03/25 01:55:12;;;;;;;6.43;3.40;;;;;6.90;97750.00;;;;7390273;19;20014;-68
2024/03/25 01:57:38;;;;;;;7.55;3.50;;;;;7.00;97755.00;;;;7390887;19;20018;-67
2024/03/25 02:00:06;;;;;;;5.88;3.10;;;;;7.00;97745.00;;;;7394757;19;20018;-67
2024/03/25 02:02:35;;;;;;;6.60;3.05;;;;;7.10;97744.00;;;;7399147;19;20039;-68
2024/03/25 02:05:02;;;;;;;6.70;3.45;;;;;7.00;97747.00;;;;7396408;19;20003;-68
2024/03/25 02:07:29;;;;;;;5.75;3.33;;;;;7.00;97750.00;;;;7395470;19;20475;-68
2024/03/25 02:09:55;;;;;;;8.07;3.80;;;;;7.00;97743.00;;;;7396050;19;20011;-68
2024/03/25 02:12:22;;;;;;;8.48;3.58;;;;;6.90;97736.00;;;;7395699;19;20494;-68
2024/03/25 02:14:47;;;;;;;9.93;3.25;;;;;6.90;97740.00;;;;7394214;19;20021;-68
2024/03/25 02:17:13;;;;;;;14.85;4.18;;;;;6.90;97738.00;;;;7393197;19;20003;-68
2024/03/25 02:19:41;;;;;;;9.85;3.33;;;;;6.90;97743.00;;;;7393707;19;20051;-68
2024/03/25 02:22:06;;;;;;;5.45;3.75;;;;;6.80;97731.00;;;;7392001;19;20373;-68
2024/03/25 02:24:34;;;;;;;5.38;3.58;;;;;6.80;97738.00;;;;7392352;19;20011;-68
2024/03/25 02:26:59;;;;;;;8.15;3.65;;;;;6.90;97736.00;;;;7391004;19;20115;-68
2024/03/25 02:29:33;;;;;;;7.80;3.92;;;;;6.90;97741.00;;;;7393107;19;20014;-68
2024/03/25 02:31:59;;;;;;;9.38;4.40;;;;;6.80;97734.00;;;;7393570;19;20050;-68
2024/03/25 02:34:25;;;;;;;6.20;3.47;;;;;6.70;97730.00;;;;7392852;19;20018;-68
2024/03/25 02:36:51;;;;;;;12.82;4.13;;;;;6.70;97729.00;;;;7392108;19;20938;-68
2024/03/25 02:39:17;;;;;;;5.20;3.22;;;;;6.70;97721.00;;;;7393120;19;20027;-67
2024/03/25 02:41:43;;;;;;;6.78;3.55;;;;;6.70;97730.00;;;;7397381;19;20015;-68
2024/03/25 02:44:09;;;;;;;10.52;4.07;;;;;6.70;97722.00;;;;7400284;19;20040;-67
2024/03/25 02:46:34;;;;;;;7.95;3.75;;;;;6.60;97712.00;;;;7396072;19;20019;-67
2024/03/25 02:49:00;;;;;;;7.63;3.90;;;;;6.50;97719.00;;;;7401741;19;20494;-67
2024/03/25 02:51:26;;;;;;;9.65;4.07;;;;;6.50;97712.00;;;;7397693;19;20011;-67
2024/03/25 02:53:51;;;;;;;9.05;3.80;;;;;6.50;97709.00;;;;7397988;19;20022;-67
2024/03/25 02:56:17;;;;;;;6.70;3.90;;;;;6.50;97706.00;;;;7396850;19;20436;-67
2024/03/25 02:58:43;;;;;;;10.02;4.68;;;;;6.50;97711.00;;;;7397081;19;20013;-67
2024/03/25 03:01:08;;;;;;;9.98;4.25;;;;;6.40;97706.00;;;;7399958;19;20496;-67
2024/03/25 03:03:34;;;;;;;22.23;4.55;;;;;6.40;97708.00;;;;7400770;19;20014;-68
2024/03/25 03:06:00;;;;;;;6.72;3.30;;;;;6.20;97703.00;;;;7395759;19;20014;-67
2024/03/25 03:08:25;;;;;;;9.60;3.70;;;;;6.10;97717.00;;;;7396786;19;20016;-67
2024/03/25 03:10:51;;;;;;;5.88;3.42;;;;;6.10;97706.00;;;;7396656;19;20011;-68
2024/03/25 03:13:16;;;;;;;7.32;3.50;;;;;6.20;97714.00;;;;7396459;19;20006;-67
2024/03/25 03:15:45;;;;;;;8.13;3.67;;;;;6.20;97717.00;;;;7394150;19;20498;-67
2024/03/25 03:18:11;;;;;;;8.50;3.88;;;;;6.20;97721.00;;;;7395955;19;20042;-67
2024/03/25 03:20:36;;;;;;;10.27;3.65;;;;;6.20;97725.00;;;;7395061;19;20014;-68
2024/03/25 03:23:02;;;;;;;8.52;3.58;;;;;6.20;97724.00;;;;7396492;19;20015;-67
2024/03/25 03:25:29;;;;;;;7.78;3.80;;;;;6.00;97715.00;;;;7395797;19;20010;-67
2024/03/25 03:27:55;;;;;;;7.47;4.00;;;;;5.90;97709.00;;;;7392876;19;20034;-67
2024/03/25 03:30:21;;;;;;;8.40;3.33;;;;;5.90;97723.00;;;;7396413;19;20018;-67
2024/03/25 03:32:47;;;;;;;5.20;3.33;;;;;6.00;97716.00;;;;7399416;19;20002;-68
2024/03/25 03:35:12;;;;;;;11.38;3.67;;;;;6.00;97714.00;;;;7394867;19;20015;-67
2024/03/25 03:37:38;;;;;;;7.50;3.58;;;;;6.00;97711.00;;;;7393938;19;20003;-68
2024/03/25 03:40:08;;;;;;;6.75;3.83;;;;;6.00;97722.00;;;;7395440;19;20015;-67
2024/03/25 03:42:33;;;;;;;8.75;3.95;;;;;6.00;97711.00;;;;7395379;19;20033;-68
2024/03/25 03:44:59;;;;;;;10.73;4.05;;;;;5.90;97711.00;;;;7396558;19;20010;-67
2024/03/25 03:47:25;;;;;;;8.95;3.75;;;;;5.90;97713.00;;;;7396366;19;20467;-67
2024/03/25 03:49:51;;;;;;;6.63;4.25;;;;;5.90;97712.00;;;;7398537;19;20015;-67
2024/03/25 03:52:17;;;;;;;9.13;3.70;;;;;5.90;97704.00;;;;7399003;19;20017;-68
2024/03/25 03:54:42;;;;;;;8.45;3.70;;;;;5.90;97705.00;;;;7397631;19;20009;-68
2024/03/25 03:57:08;;;;;;;6.53;3.85;;;;;6.00;97704.00;;;;7396218;19;20381;-67
2024/03/25 03:59:34;;;;;;;6.70;3.90;;;;;6.00;97708.00;;;;7393667;19;20098;-67
2024/03/25 04:01:59;;;;;;;6.07;3.88;;;;;6.00;97710.00;;;;7398555;19;20014;-67
2024/03/25 04:04:25;;;;;;;7.18;3.88;;;;;6.00;97709.00;;;;7395708;19;20034;-68
2024/03/25 04:06:51;;;;;;;7.82;4.85;;;;;5.80;97712.00;;;;7394779;19;20475;-66
2024/03/25 04:09:17;;;;;;;7.00;3.90;;;;;5.50;97713.00;;;;7396382;19;20010;-66
2024/03/25 04:11:46;;;;;;;7.45;3.83;;;;;5.40;97702.00;;;;7395525;19;20014;-66
2024/03/25 04:14:12;;;;;;;6.63;3.88;;;;;5.30;97713.00;;;;7394075;19;20471;-67
2024/03/25 04:16:37;;;;;;;6.80;3.85;;;;;5.40;97709.00;;;;7392460;19;20095;-67
2024/03/25 04:19:03;;;;;;;8.43;4.55;;;;;5.30;97711.00;;;;7393218;19;20359;-67
2024/03/25 04:21:29;;;;;;;8.57;4.07;;;;;5.20;97713.00;;;;7393228;19;20006;-67
2024/03/25 04:23:55;;;;;;;11.57;4.40;;;;;5.10;97721.00;;;;7393328;19;20018;-66
2024/03/25 04:26:21;;;;;;;10.23;4.55;;;;;5.10;97704.00;;;;7393012;19;20024;-67
2024/03/25 04:28:47;;;;;;;8.98;4.70;;;;;5.00;97715.00;;;;7393108;19;20028;-66
2024/03/25 04:31:13;;;;;;;12.95;4.90;;;;;5.00;97713.00;;;;7395837;19;20014;-67
2024/03/25 04:33:38;;;;;;;10.23;4.53;;;;;5.00;97714.00;;;;7396549;19;20014;-67
2024/03/25 04:36:07;;;;;;;7.00;4.40;;;;;4.90;97700.00;;;;7391243;19;20356;-67
2024/03/25 04:38:32;;;;;;;8.55;5.07;;;;;4.90;97703.00;;;;7393174;19;20376;-67
2024/03/25 04:40:58;;;;;;;7.30;3.90;;;;;4.90;97710.00;;;;7392533;19;20010;-66
2024/03/25 04:43:24;;;;;;;12.18;4.47;;;;;5.00;97707.00;;;;7392671;19;20013;-67
2024/03/25 04:45:49;;;;;;;7.05;3.85;;;;;5.00;97710.00;;;;7392118;19;20011;-67
2024/03/25 04:48:15;;;;;;;10.60;5.32;;;;;5.10;97706.00;;;;7392444;19;20026;-66
2024/03/25 04:50:40;;;;;;;5.72;4.40;;;;;5.10;97711.00;;;;7391851;19;20006;-66
2024/03/25 04:53:06;;;;;;;8.02;5.20;;;;;5.20;97716.00;;;;7392501;19;20392;-66
2024/03/25 04:55:32;;;;;;;9.55;5.50;;;;;5.20;97718.00;;;;7391147;19;20340;-66
2024/03/25 04:57:57;;;;;;;8.73;5.15;;;;;5.20;97722.00;;;;7390330;19;20006;-67
2024/03/25 05:00:23;;;;;;;9.73;5.95;;;;;5.20;97730.00;;;;7393003;19;20010;-67
2024/03/25 05:02:48;;;;;;;9.27;5.45;;;;;5.20;97718.00;;;;7395361;19;20363;-67
2024/03/25 05:05:14;;;;;;;7.95;5.22;;;;;5.20;97729.00;;;;7391949;19;20007;-67
2024/03/25 05:07:40;;;;;;;11.02;6.28;;;;;5.20;97727.00;;;;7390089;19;20364;-67
2024/03/25 05:10:06;;;;;;;9.27;5.57;;;;;5.20;97722.00;;;;7390913;19;20023;-67
2024/03/25 05:12:31;;;;;;;12.63;6.93;;;;;5.30;97727.00;;;;7390344;19;20034;-67
2024/03/25 05:14:57;;;;;;;10.60;6.13;;;;;5.30;97717.00;;;;7390569;19;20003;-67
2024/03/25 05:17:23;;;;;;;14.20;6.75;;;;;5.30;97731.00;;;;7389934;19;20066;-67
2024/03/25 05:19:49;;;;;;;10.88;6.50;;;;;5.30;97721.00;;;;7392223;19;20105;-66
2024/03/25 05:22:14;;;;;;;11.20;6.70;;;;;5.30;97717.00;;;;7391626;19;20479;-67
2024/03/25 05:24:40;;;;;;;11.85;6.38;;;;;5.30;97719.00;;;;7394540;19;20007;-67
2024/03/25 05:27:06;;;;;;;11.80;6.65;;;;;5.30;97710.00;;;;7398513;19;20043;-68
2024/03/25 05:29:32;;;;;;;12.52;6.85;;;;;5.30;97717.00;;;;7406414;19;20011;-67
2024/03/25 05:32:01;;;;;;;14.35;8.23;;;;;5.30;97714.00;;;;7408675;19;20018;-67
2024/03/25 05:34:28;;;;;;;12.27;6.88;;;;;5.40;97716.00;;;;7405055;19;20022;-67
2024/03/25 05:36:54;;;;;;;15.45;9.23;;;;;5.40;97714.00;;;;7400884;19;20006;-67
2024/03/25 05:39:20;;;;;;;11.13;6.65;;;;;5.50;97714.00;;;;7402481;19;20019;-67
2024/03/25 05:41:48;;;;;;;12.35;6.93;;;;;5.50;97716.00;;;;7406723;19;20022;-67
2024/03/25 05:44:13;;;;;;;14.50;7.32;;;;;5.60;97726.00;;;;7417401;19;20014;-68
2024/03/25 05:46:39;;;;;;;12.68;7.15;;;;;5.60;97717.00;;;;7417693;19;20051;-66
2024/03/25 05:49:06;;;;;;;14.05;7.85;;;;;5.70;97720.00;;;;7420467;19;20030;-67
2024/03/25 05:51:35;;;;;;;11.48;7.85;;;;;5.70;97727.00;;;;7419334;19;20021;-67
2024/03/25 05:54:01;;;;;;;10.23;7.45;;;;;5.70;97726.00;;;;7420848;19;20007;-67
2024/03/25 05:56:30;;;;;;;13.75;7.63;;;;;5.80;97727.00;;;;7412571;19;20011;-66
2024/03/25 05:58:57;;;;;;;12.52;7.57;;;;;5.90;97730.00;;;;7413660;19;20010;-66
2024/03/25 06:01:23;;;;;;;17.88;8.10;;;;;5.90;97737.00;;;;7415462;19;20042;-69
2024/03/25 06:03:49;;;;;;;10.65;7.38;;;;;5.80;97733.00;;;;7418440;19;20025;-69
2024/03/25 06:06:15;;;;;;;12.70;8.00;;;;;5.80;97742.00;;;;7415917;19;20014;-69
2024/03/25 06:08:40;;;;;;;14.55;8.05;;;;;5.90;97734.00;;;;7416059;19;20007;-68
2024/03/25 06:11:06;;;;;;;13.65;8.27;;;;;6.00;97740.00;;;;7414398;19;20011;-69
2024/03/25 06:13:32;;;;;;;12.00;8.07;;;;;6.10;97740.00;;;;7420228;19;20011;-67
2024/03/25 06:15:58;;;;;;;15.57;8.80;;;;;6.10;97735.00;;;;7414098;19;20056;-67
2024/03/25 06:18:24;;;;;;;13.48;8.80;;;;;6.10;97736.00;;;;7410065;19;20024;-67
2024/03/25 06:20:50;;;;;;;14.63;8.40;;;;;6.20;97736.00;;;;7407721;19;20010;-69
2024/03/25 06:23:42;;;;;;;17.23;9.13;;;;;6.20;97748.00;;;;7403118;19;20011;-67
2024/03/25 06:26:08;;;;;;;12.65;8.80;;;;;6.30;97739.00;;;;7400227;19;20011;-67
2024/03/25 06:28:34;;;;;;;14.52;9.27;;;;;6.40;97738.00;;;;7398905;19;20015;-68
2024/03/25 06:36:29;;;;;;;;;;;;;6.70;97752.00;;;;7396557;19;20475;-67
2024/03/25 06:38:55;;;;;;;16.77;9.60;;;;;6.70;97751.00;;;;7397312;19;19915;-67
2024/03/25 06:41:20;;;;;;;18.23;9.73;;;;;6.70;97762.00;;;;7396804;19;20121;-67
2024/03/25 06:43:46;;;;;;;16.08;10.05;;;;;6.60;97760.00;;;;7397166;19;20010;-68
2024/03/25 06:46:12;;;;;;;15.18;9.32;;;;;6.70;97765.00;;;;7396188;19;20007;-68
2024/03/25 06:48:37;;;;;;;18.35;10.05;;;;;6.80;97768.00;;;;7397422;19;20010;-68
2024/03/25 06:51:04;;;;;;;19.05;10.68;;;;;6.80;97759.00;;;;7395469;19;20350;-66
2024/03/25 06:53:30;;;;;;;14.57;10.00;;;;;6.80;97760.00;;;;7396720;19;20034;-67
2024/03/25 06:55:57;;;;;;;17.35;9.75;;;;;6.90;97761.00;;;;7394264;19;20040;-67
2024/03/25 06:58:25;;;;;;;15.40;9.70;;;;;7.00;97756.00;;;;7396145;19;20019;-66
2024/03/25 07:00:51;;;;;;;17.40;10.70;;;;;7.20;97757.00;;;;7398120;19;20361;-66
2024/03/25 07:03:18;;;;;;;16.15;9.25;;;;;7.30;97761.00;;;;7399051;19;20026;-66
2024/03/25 07:05:48;;;;;;;15.27;9.55;;;;;7.50;97752.00;;;;7396436;19;20010;-66
2024/03/25 07:08:17;;;;;;;14.95;9.55;;;;;7.70;97744.00;;;;7396218;19;20010;-66
2024/03/25 07:10:43;;;;;;;18.52;9.70;;;;;7.80;97745.00;;;;7395817;19;20341;-67
2024/03/25 07:13:10;;;;;;;17.05;10.18;;;;;7.90;97749.00;;;;7396252;19;20574;-67
2024/03/25 07:15:36;;;;;;;13.57;9.23;;;;;7.90;97755.00;;;;7394105;19;20048;-67
2024/03/25 07:18:03;;;;;;;15.38;9.07;;;;;7.90;97757.00;;;;7392852;19;20029;-67
2024/03/25 07:20:29;;;;;;;15.70;9.75;;;;;7.90;97756.00;;;;7397540;19;20010;-67
2024/03/25 07:22:55;;;;;;;15.00;9.60;;;;;8.00;97759.00;;;;7396572;19;20011;-67
2024/03/25 07:25:22;;;;;;;18.38;10.43;;;;;8.10;97749.00;;;;7395881;19;20043;-66
2024/03/25 07:27:48;;;;;;;15.10;9.88;;;;;8.20;97756.00;;;;7393214;19;20006;-67
2024/03/25 07:30:14;;;;;;;13.70;9.75;;;;;8.40;97760.00;;;;7396371;19;20027;-67
2024/03/25 07:32:40;;;;;;;16.58;10.63;;;;;8.70;97758.00;;;;7396269;19;20003;-66
2024/03/25 07:35:07;;;;;;;15.07;9.70;;;;;8.80;97759.00;;;;7391607;19;20431;-66
2024/03/25 07:37:35;;;;;;;15.98;9.30;;;;;8.80;97760.00;;;;7393095;19;20019;-66
2024/03/25 07:40:01;;;;;;;16.35;8.88;;;;;8.80;97756.00;;;;7394195;19;20021;-67
2024/03/25 07:42:27;;;;;;;15.20;9.02;;;;;8.70;97755.00;;;;7394467;19;20018;-67
2024/03/25 07:44:53;;;;;;;15.73;9.18;;;;;9.00;97744.00;;;;7395170;19;20474;-66
2024/03/25 07:47:19;;;;;;;14.40;9.32;;;;;9.00;97747.00;;;;7394449;19;20010;-66
2024/03/25 07:49:44;;;;;;;15.52;9.85;;;;;9.20;97742.00;;;;7394431;19;20389;-67
2024/03/25 07:52:10;;;;;;;13.00;7.95;;;;;9.30;97742.00;;;;7393342;19;20066;-67
2024/03/25 07:54:38;;;;;;;14.77;9.07;;;;;9.10;97746.00;;;;7393314;19;20459;-67
2024/03/25 07:57:04;;;;;;;13.73;9.45;;;;;9.30;97756.00;;;;7392427;19;20011;-67
2024/03/25 07:59:30;;;;;;;13.77;8.88;;;;;9.30;97756.00;;;;7393699;19;20010;-67
2024/03/25 08:01:56;;;;;;;16.40;8.25;;;;;9.40;97761.00;;;;7397297;19;20006;-66
2024/03/25 08:04:22;;;;;;;16.65;8.48;;;;;9.40;97760.00;;;;7393998;19;20490;-66
2024/03/25 08:06:47;;;;;;;17.75;8.63;;;;;9.40;97767.00;;;;7393014;19;20038;-68
2024/03/25 08:09:15;;;;;;;13.50;8.57;;;;;9.50;97769.00;;;;7393973;19;20029;-70
2024/03/25 08:11:43;;;;;;;15.52;9.02;;;;;9.80;97767.00;;;;7392966;19;20006;-68
2024/03/25 08:14:09;;;;;;;15.13;8.75;;;;;10.00;97775.00;;;;7393195;19;20013;-68
2024/03/25 08:16:36;;;;;;;13.68;8.55;;;;;10.00;97767.00;;;;7392177;19;20018;-68
2024/03/25 08:19:02;;;;;;;15.75;8.27;;;;;10.00;97762.00;;;;7393423;19;20014;-69
2024/03/25 08:21:28;;;;;;;13.10;8.68;;;;;9.70;97776.00;;;;7392799;19;20035;-68
2024/03/25 08:23:53;;;;;;;14.73;9.45;;;;;9.80;97768.00;;;;7393250;19;20019;-68
2024/03/25 08:26:19;;;;;;;15.20;9.13;;;;;9.90;97759.00;;;;7392585;19;20027;-68
2024/03/25 08:28:45;;;;;;;13.77;9.27;;;;;9.80;97772.00;;;;7393026;19;20014;-69
2024/03/25 08:31:10;;;;;;;14.88;9.35;;;;;9.90;97769.00;;;;7395471;19;20018;-70
2024/03/25 08:33:36;;;;;;;16.13;9.45;;;;;10.10;97761.00;;;;7396702;19;20628;-69
2024/03/25 08:36:03;;;;;;;14.27;8.60;;;;;10.20;97768.00;;;;7391350;19;20047;-69
2024/03/25 08:38:29;;;;;;;14.82;9.70;;;;;10.30;97765.00;;;;7392883;19;20018;-69
2024/03/25 08:40:54;;;;;;;15.95;10.20;;;;;10.20;97768.00;;;;7392507;19;20360;-69
2024/03/25 08:43:20;;;;;;;15.02;9.48;;;;;10.30;97770.00;;;;7392840;19;20026;-68
2024/03/25 08:45:46;;;;;;;16.88;9.35;;;;;10.40;97757.00;;;;7392013;19;20494;-69
2024/03/25 08:48:12;;;;;;;15.32;9.00;;;;;10.40;97753.00;;;;7392855;19;20011;-70
2024/03/25 08:50:37;;;;;;;13.55;8.70;;;;;10.40;97757.00;;;;7392416;19;20078;-70
2024/03/25 08:53:04;;;;;;;11.93;8.10;;;;;10.60;97745.00;;;;7392392;19;20032;-68
2024/03/25 08:55:30;;;;;;;14.32;8.25;;;;;10.70;97755.00;;;;7391698;19;20034;-68
2024/03/25 08:57:59;;;;;;;14.57;8.52;;;;;10.70;97755.00;;;;7390875;19;20337;-68
2024/03/25 09:00:28;;;;;;;14.05;8.80;;;;;10.80;97744.00;;;;7393824;19;20351;-68
2024/03/25 09:02:54;;;;;;;12.30;7.40;;;;;11.00;97733.00;;;;7396145;19;20013;-69
2024/03/25 09:05:21;;;;;;;17.30;9.63;;;;;10.90;97735.00;;;;7392187;19;20015;-69
2024/03/25 09:07:51;;;;;;;11.70;7.35;;;;;11.10;97728.00;;;;7390262;19;20007;-69
2024/03/25 09:13:04;;;;;;;16.63;7.88;;;;;11.00;97710.00;;;;7392001;19;20123;-69
2024/03/25 09:15:30;;;;;;;13.75;7.45;;;;;11.20;97708.00;;;;7390594;19;20356;-69
2024/03/25 09:17:56;;;;;;;8.00;5.07;;;;;11.20;97711.00;;;;7390081;19;20022;-69
2024/03/25 09:20:22;;;;;;;9.55;5.13;;;;;10.90;97692.00;;;;7391127;19;20015;-68
2024/03/25 09:22:48;;;;;;;8.88;5.45;;;;;10.80;97697.00;;;;7391436;19;20366;-69
2024/03/25 09:25:19;;;;;;;13.57;6.72;;;;;10.80;97689.00;;;;7391719;19;20006;-69
2024/03/25 09:27:49;;;;;;;7.97;5.38;;;;;11.10;97691.00;;;;7389934;19;20015;-69
2024/03/25 09:30:15;;;;;;;9.00;5.63;;;;;11.30;97691.00;;;;7392398;19;20017;-69
2024/03/25 09:32:42;;;;;;;9.50;5.15;;;;;11.30;97679.00;;;;7390891;19;20018;-69
2024/03/25 09:35:11;;;;;;;14.48;5.60;;;;;11.30;97672.00;;;;7390777;19;20039;-69
2024/03/25 09:37:37;;;;;;;7.70;4.45;;;;;11.40;97666.00;;;;7389269;19;20017;-68
2024/03/25 09:40:04;;;;;;;9.77;5.00;;;;;11.40;97661.00;;;;7391469;19;20017;-68
2024/03/25 09:42:48;;;;;;;9.27;4.72;;;;;11.50;97650.00;;;;7391037;19;20027;-69
2024/03/25 09:45:16;;;;;;;9.73;4.43;;;;;11.50;97650.00;;;;7391508;19;20333;-69
2024/03/25 09:47:46;;;;;;;7.82;4.80;;;;;11.70;97652.00;;;;7389726;19;20279;-69
2024/03/25 09:50:24;;;;;;;9.65;5.03;;;;;11.90;97648.00;;;;7390883;19;20031;-69
2024/03/25 09:52:50;;;;;;;10.95;5.20;;;;;12.00;97641.00;;;;7390684;19;20026;-69
2024/03/25 09:55:17;;;;;;;6.82;3.88;;;;;12.10;97638.00;;;;7390804;19;20373;-69
2024/03/25 09:57:43;;;;;;;8.30;4.25;;;;;12.10;97636.00;;;;7392146;19;20038;-68
2024/03/25 10:00:10;;;;;;;8.23;4.25;;;;;12.30;97645.00;;;;7399659;19;20011;-69
2024/03/25 10:02:44;;;;;;;7.88;4.40;;;;;12.50;97636.00;;;;7401694;19;20021;-67
2024/03/25 10:05:10;;;;;;;6.00;3.58;;;;;12.60;97634.00;;;;7399175;19;20015;-67
2024/03/25 10:07:36;;;;;;;7.00;3.50;;;;;12.60;97641.00;;;;7397650;19;20010;-68
2024/03/25 10:10:05;;;;;;;9.48;4.20;;;;;12.40;97635.00;;;;7398975;19;20010;-69
2024/03/25 10:12:32;;;;;;;9.60;4.63;;;;;12.40;97631.00;;;;7398314;19;20021;-73
2024/03/25 10:14:58;;;;;;;5.35;3.75;;;;;12.50;97624.00;;;;7397434;19;20015;-69
2024/03/25 10:17:24;;;;;;;6.22;3.78;;;;;12.40;97619.00;;;;7395651;19;20015;-70
2024/03/25 10:19:50;;;;;;;8.45;3.75;;;;;12.30;97613.00;;;;7398166;19;20015;-69
2024/03/25 10:22:16;;;;;;;7.85;4.20;;;;;12.40;97620.00;;;;7397253;19;20015;-69
2024/03/25 10:24:43;;;;;;;7.38;3.97;;;;;12.60;97616.00;;;;7398244;19;20490;-68
2024/03/25 10:27:20;;;;;;;7.82;4.25;;;;;12.80;97604.00;;;;7396062;19;20018;-68
2024/03/25 10:29:55;;;;;;;8.27;3.95;;;;;12.90;97599.00;;;;7398570;19;20010;-68
2024/03/25 10:32:21;;;;;;;6.85;3.50;;;;;13.10;97598.00;;;;7398174;19;20014;-67
2024/03/25 10:34:47;;;;;;;6.07;3.47;;;;;13.40;97593.00;;;;7398654;19;20014;-68
2024/03/25 10:37:15;;;;;;;5.90;4.22;;;;;13.60;97587.00;;;;7400300;19;20349;-69
2024/03/25 10:39:54;;;;;;;6.90;3.85;;;;;13.90;97588.00;;;;7401165;19;20011;-68
2024/03/25 10:42:21;;;;;;;8.40;4.07;;;;;14.00;97588.00;;;;7400181;19;20035;-68
2024/03/25 10:44:47;;;;;;;8.02;3.90;;;;;14.00;97581.00;;;;7399381;19;20042;-68
2024/03/25 10:47:19;;;;;;;6.20;3.70;;;;;13.70;97579.00;;;;7395714;19;20022;-70
2024/03/25 10:49:50;;;;;;;7.78;3.33;;;;;13.70;97571.00;;;;7397666;19;20042;-67
2024/03/25 10:52:16;;;;;;;4.50;3.03;;;;;13.80;97568.00;;;;7396559;19;20022;-66
2024/03/25 10:54:43;;;;;;;5.65;3.40;;;;;13.80;97570.00;;;;7396213;19;20010;-66
2024/03/25 10:57:10;;;;;;;7.68;3.60;;;;;13.40;97564.00;;;;7395128;19;20010;-66
2024/03/25 10:59:41;;;;;;;6.05;3.35;;;;;13.10;97554.00;;;;7396911;19;20006;-66
2024/03/25 11:02:10;;;;;;;6.57;3.10;;;;;13.10;97555.00;;;;7400019;19;20013;-66
2024/03/25 11:04:37;;;;;;;4.93;2.58;;;;;13.10;97556.00;;;;7397409;19;20025;-66
2024/03/25 11:07:32;;;;;;;4.07;2.67;;;;;13.00;97549.00;;;;7394456;19;20046;-68
2024/03/25 11:10:06;;;;;;;5.15;2.60;;;;;13.40;97544.00;;;;7396444;19;20041;-69
2024/03/25 11:12:36;;;;;;;4.70;2.33;;;;;13.20;97531.00;;;;7396184;19;20019;-68
2024/03/25 11:15:06;;;;;;;5.05;2.33;;;;;13.10;97540.00;;;;7395420;19;20018;-67
2024/03/25 11:17:32;;;;;;;4.18;2.42;;;;;13.20;97535.00;;;;7394421;19;20041;-68
2024/03/25 11:20:10;;;;;;;2.88;2.05;;;;;13.20;97533.00;;;;7395715;19;20472;-68
2024/03/25 11:22:47;;;;;;;3.47;1.98;;;;;13.40;97533.00;;;;7395295;19;20014;-69
2024/03/25 11:25:15;;;;;;;5.13;2.30;;;;;13.50;97520.00;;;;7396180;19;20029;-69
2024/03/25 11:27:43;;;;;;;5.93;2.40;;;;;13.40;97518.00;;;;7393612;19;20037;-69
2024/03/25 11:30:13;;;;;;;5.97;2.38;;;;;13.20;97511.00;;;;7396126;19;20075;-69
2024/03/25 11:32:52;;;;;;;4.90;2.50;;;;;13.20;97511.00;;;;7398605;19;20366;-69
2024/03/25 11:35:18;;;;;;;2.65;1.90;;;;;13.40;97510.00;;;;7393966;19;20491;-68
2024/03/25 11:37:45;;;;;;;5.60;2.55;;;;;13.40;97505.00;;;;7392920;19;20025;-68
2024/03/25 11:40:14;;;;;;;3.90;2.63;;;;;13.50;97497.00;;;;7395240;19;20020;-69
2024/03/25 11:42:43;;;;;;;6.60;2.40;;;;;13.60;97492.00;;;;7394094;19;20015;-69
2024/03/25 11:45:20;;;;;;;4.28;1.90;;;;;13.70;97490.00;;;;7394435;19;20029;-68
2024/03/25 11:47:47;;;;;;;4.35;2.10;;;;;14.00;97488.00;;;;7392813;19;20026;-67
2024/03/25 11:50:14;;;;;;;5.25;1.92;;;;;14.30;97476.00;;;;7395721;19;20017;-63
2024/03/25 11:52:41;;;;;;;3.05;1.80;;;;;14.50;97475.00;;;;7394901;19;20015;-66
2024/03/25 11:55:11;;;;;;;5.20;2.05;;;;;14.80;97466.00;;;;7393514;19;20017;-66
2024/03/25 11:57:37;;;;;;;2.15;1.73;;;;;14.80;97470.00;;;;7392979;19;20368;-66
2024/03/25 12:00:10;;;;;;;3.25;1.90;;;;;14.70;97466.00;;;;7395711;19;20376;-67
2024/03/25 12:02:43;;;;;;;3.42;1.80;;;;;14.70;97463.00;;;;7395688;19;20039;-68
2024/03/25 12:05:11;;;;;;;2.30;1.83;;;;;14.50;97465.00;;;;7393926;19;20503;-68
2024/03/25 12:07:36;;;;;;;12.00;2.80;;;;;14.30;97457.00;;;;7391885;19;20015;-69
2024/03/25 12:12:47;;;;;;;4.88;2.30;;;;;14.90;97444.00;;;;7394221;19;20404;-68
2024/03/25 12:15:13;;;;;;;4.05;2.35;;;;;15.30;97442.00;;;;7394631;19;20010;-68
2024/03/25 12:17:39;;;;;;;4.03;1.92;;;;;15.40;97436.00;;;;7392101;19;20010;-67
2024/03/25 12:20:10;;;;;;;5.90;2.30;;;;;15.10;97426.00;;;;7392072;19;20011;-67
2024/03/25 12:22:36;;;;;;;4.53;2.20;;;;;15.20;97430.00;;;;7393017;19;20015;-68
2024/03/25 12:25:05;;;;;;;4.80;1.80;;;;;14.90;97421.00;;;;7393431;19;20023;-67
2024/03/25 12:27:32;;;;;;;2.75;1.90;;;;;15.20;97417.00;;;;7391591;19;20014;-68
2024/03/25 12:30:01;;;;;;;2.42;1.42;;;;;15.20;97422.00;;;;7393922;19;20070;-67